Time;durP1;ratioP1;P1;durP2;ratioP2;P2;SDS_P1;SDS_P2;PMS_P1;PMS_P2;Temp;Humidity;BMP_temperature;BMP_pressure;BME280_temperature;BME280_humidity;BME280_pressure;Samples;Min_cycle;Max_cycle;Signal;HPM_P1;HPM_P2
2021/11/01 00:02:02;;;;;;;4.20;3.83;;;13.10;99.90;;;;;;5016768;28;20269;-82
2021/11/01 00:04:30;;;;;;;4.70;4.30;;;13.40;99.90;;;;;;5025010;28;20198;-83
2021/11/01 00:06:56;;;;;;;7.45;4.15;;;13.30;99.90;;;;;;5021686;28;20187;-84
2021/11/01 00:09:21;;;;;;;4.57;4.18;;;13.10;99.90;;;;;;5030456;28;20182;-85
2021/11/01 00:11:47;;;;;;;5.40;4.20;;;13.60;99.90;;;;;;5018200;28;20186;-84
2021/11/01 00:14:13;;;;;;;7.60;4.23;;;13.60;99.90;;;;;;5014201;28;20206;-86
2021/11/01 00:16:40;;;;;;;4.43;3.93;;;13.50;99.90;;;;;;5014020;28;20437;-87
2021/11/01 00:19:06;;;;;;;5.63;3.47;;;13.20;99.90;;;;;;5014427;28;20182;-85
2021/11/01 00:21:32;;;;;;;4.75;4.30;;;13.70;99.90;;;;;;5013690;28;20182;-87
2021/11/01 00:23:57;;;;;;;3.50;3.20;;;13.30;99.90;;;;;;5015367;28;20182;-85
2021/11/01 00:26:23;;;;;;;5.57;4.13;;;13.60;99.90;;;;;;5033150;28;20693;-87
2021/11/01 00:28:50;;;;;;;3.83;3.50;;;13.80;99.90;;;;;;5017908;28;20276;-88
2021/11/01 00:31:15;;;;;;;4.75;3.40;;;13.90;99.90;;;;;;5015557;28;20182;-87
2021/11/01 00:33:41;;;;;;;3.90;3.50;;;14.10;99.90;;;;;;5017263;28;20462;-89
2021/11/01 00:36:07;;;;;;;3.93;3.53;;;13.90;99.90;;;;;;5026814;28;20186;-89
2021/11/01 00:38:34;;;;;;;3.53;3.22;;;13.90;99.90;;;;;;5018725;28;20190;-88
2021/11/01 00:41:01;;;;;;;2.13;1.80;;;13.90;99.90;;;;;;5032397;28;20214;-87
2021/11/01 00:43:27;;;;;;;2.50;2.30;;;14.30;99.90;;;;;;5013243;28;20182;-87
2021/11/01 00:45:53;;;;;;;2.20;2.00;;;14.20;99.90;;;;;;5016394;28;20316;-88
2021/11/01 00:48:19;;;;;;;1.70;1.60;;;14.10;99.90;;;;;;5021039;28;20710;-85
2021/11/01 00:50:46;;;;;;;1.87;1.77;;;14.20;99.90;;;;;;5030628;28;20194;-84
2021/11/01 00:53:12;;;;;;;2.00;1.70;;;14.80;99.90;;;;;;5014765;28;20218;-84
2021/11/01 00:55:51;;;;;;;2.05;1.73;;;15.00;99.90;;;;;;5018241;28;20569;-84
2021/11/01 00:58:19;;;;;;;2.75;1.45;;;15.10;99.90;;;;;;5030630;28;20181;-85
2021/11/01 01:00:45;;;;;;;2.45;1.60;;;15.40;99.90;;;;;;5031924;28;20218;-85
2021/11/01 01:03:12;;;;;;;1.58;1.48;;;15.20;99.90;;;;;;5032527;28;20234;-86
2021/11/01 01:05:39;;;;;;;2.17;1.70;;;15.50;99.90;;;;;;5031129;28;20205;-85
2021/11/01 01:08:04;;;;;;;1.23;0.90;;;15.60;99.90;;;;;;5031635;28;20178;-86
2021/11/01 01:10:30;;;;;;;1.40;1.30;;;15.80;99.90;;;;;;5014745;28;20188;-86
2021/11/01 01:12:56;;;;;;;1.00;1.00;;;15.90;99.90;;;;;;5030189;28;20186;-86
2021/11/01 01:15:25;;;;;;;1.23;1.10;;;15.70;99.90;;;;;;5012755;28;20690;-86
2021/11/01 01:17:51;;;;;;;1.77;1.08;;;15.80;99.90;;;;;;5015871;28;20213;-83
2021/11/01 01:20:19;;;;;;;0.95;0.90;;;16.50;99.90;;;;;;5010426;28;20218;-90
2021/11/01 01:22:46;;;;;;;1.45;1.17;;;16.30;99.90;;;;;;5030791;28;21308;-83
2021/11/01 01:25:26;;;;;;;1.20;1.10;;;16.40;99.90;;;;;;5006466;28;20202;-84
2021/11/01 01:27:53;;;;;;;1.08;0.95;;;16.60;99.90;;;;;;5019515;28;20239;-83
2021/11/01 01:30:20;;;;;;;1.45;1.00;;;16.20;99.90;;;;;;5028622;28;20199;-83
2021/11/01 01:32:46;;;;;;;1.77;1.35;;;16.50;99.90;;;;;;5017213;28;20634;-83
2021/11/01 01:35:13;;;;;;;1.37;1.27;;;16.70;99.90;;;;;;5027346;28;20248;-84
2021/11/01 01:37:39;;;;;;;1.20;1.10;;;16.50;99.90;;;;;;5026448;28;20194;-83
2021/11/01 01:40:08;;;;;;;1.20;1.10;;;16.30;99.90;;;;;;5029497;28;20220;-83
2021/11/01 01:42:39;;;;;;;1.40;1.30;;;17.00;99.90;;;;;;5011664;28;21028;-83
2021/11/01 01:45:07;;;;;;;1.45;1.20;;;16.70;99.90;;;;;;5001941;28;20304;-83
2021/11/01 01:47:33;;;;;;;1.55;1.17;;;16.90;99.90;;;;;;4999369;28;20654;-83
2021/11/01 01:49:59;;;;;;;1.30;1.20;;;16.80;99.90;;;;;;5017008;28;20182;-83
2021/11/01 01:52:25;;;;;;;1.80;1.70;;;16.80;99.90;;;;;;5017359;28;20557;-84
2021/11/01 01:54:51;;;;;;;2.00;1.50;;;16.50;99.90;;;;;;5020184;28;20704;-83
2021/11/01 01:57:17;;;;;;;1.53;1.43;;;16.80;99.90;;;;;;5012564;28;20437;-83
2021/11/01 01:59:43;;;;;;;2.60;2.40;;;16.80;99.90;;;;;;5033329;28;20201;-84
2021/11/01 02:02:09;;;;;;;2.08;1.80;;;16.40;99.90;;;;;;5010108;28;20206;-83
2021/11/01 02:04:35;;;;;;;1.93;1.80;;;16.30;99.90;;;;;;5032927;28;20672;-84
2021/11/01 02:07:08;;;;;;;2.20;1.85;;;16.00;99.90;;;;;;5017725;28;20436;-84
2021/11/01 02:09:40;;;;;;;2.03;1.60;;;16.20;99.90;;;;;;5033116;28;20185;-84
2021/11/01 02:12:10;;;;;;;4.95;1.30;;;16.00;99.90;;;;;;5004788;28;20186;-84
2021/11/01 02:14:44;;;;;;;2.75;1.02;;;15.80;99.90;;;;;;5020001;28;20336;-83
2021/11/01 02:17:16;;;;;;;2.13;0.90;;;15.70;99.90;;;;;;5006732;28;20547;-83
2021/11/01 02:19:47;;;;;;;2.05;0.80;;;15.10;99.90;;;;;;5011434;28;20198;-83
2021/11/01 02:22:31;;;;;;;2.05;0.90;;;15.00;99.90;;;;;;5013689;28;20197;-83
2021/11/01 02:25:03;;;;;;;3.72;1.05;;;15.00;99.90;;;;;;5018162;28;20748;-83
2021/11/01 02:27:32;;;;;;;1.38;0.75;;;15.10;99.90;;;;;;5025973;28;20531;-84
2021/11/01 02:29:58;;;;;;;2.30;0.90;;;15.00;99.90;;;;;;5011436;28;20264;-83
2021/11/01 02:32:25;;;;;;;1.38;0.85;;;14.30;99.90;;;;;;5029533;28;20186;-84
2021/11/01 02:34:51;;;;;;;1.98;0.80;;;15.00;99.90;;;;;;5022614;28;20214;-83
2021/11/01 02:37:17;;;;;;;1.58;0.73;;;14.40;99.90;;;;;;5029262;28;20401;-84
2021/11/01 02:39:55;;;;;;;1.25;0.80;;;14.60;99.90;;;;;;5024743;28;20686;-84
2021/11/01 02:42:24;;;;;;;1.27;0.90;;;14.50;99.90;;;;;;5009553;28;20190;-83
2021/11/01 02:45:00;;;;;;;1.10;0.80;;;13.90;99.90;;;;;;5015959;28;20562;-83
2021/11/01 02:47:27;;;;;;;4.05;0.88;;;14.20;99.90;;;;;;5015737;28;20193;-83
2021/11/01 02:49:53;;;;;;;2.17;0.90;;;13.80;99.90;;;;;;5016351;28;20251;-83
2021/11/01 02:52:19;;;;;;;3.45;1.00;;;13.80;99.90;;;;;;5023153;28;20284;-84
2021/11/01 02:54:45;;;;;;;1.20;0.80;;;13.60;99.90;;;;;;5014311;28;20240;-83
2021/11/01 02:57:11;;;;;;;2.35;0.95;;;13.50;99.90;;;;;;5021969;28;20319;-83
2021/11/01 02:59:37;;;;;;;2.83;0.90;;;13.40;99.90;;;;;;5016156;28;20206;-83
2021/11/01 03:02:03;;;;;;;1.53;0.63;;;14.00;99.90;;;;;;5009331;28;20285;-82
2021/11/01 03:04:28;;;;;;;0.90;0.87;;;13.90;99.90;;;;;;5016875;28;20205;-83
2021/11/01 03:06:56;;;;;;;1.30;0.80;;;13.40;99.90;;;;;;5028501;28;20444;-83
2021/11/01 03:09:22;;;;;;;1.17;0.65;;;13.90;99.90;;;;;;5014310;28;20228;-83
2021/11/01 03:11:48;;;;;;;3.08;1.15;;;13.60;99.90;;;;;;5014771;28;20228;-83
2021/11/01 03:14:17;;;;;;;1.53;0.60;;;13.80;99.90;;;;;;5022519;28;20256;-83
2021/11/01 03:16:45;;;;;;;2.85;1.00;;;13.50;99.90;;;;;;5011691;28;20193;-83
2021/11/01 03:19:18;;;;;;;1.42;0.80;;;13.30;99.90;;;;;;5020096;28;20182;-83
2021/11/01 03:21:45;;;;;;;2.38;0.90;;;13.70;99.90;;;;;;5029957;28;20178;-83
2021/11/01 03:24:13;;;;;;;2.35;0.80;;;13.90;99.90;;;;;;5011727;28;20237;-83
2021/11/01 03:26:39;;;;;;;1.02;0.88;;;13.20;99.90;;;;;;5014652;28;20226;-83
2021/11/01 03:29:05;;;;;;;1.23;0.67;;;13.20;99.90;;;;;;5020649;28;20276;-83
2021/11/01 03:31:32;;;;;;;1.40;0.80;;;13.50;99.90;;;;;;5023649;28;20448;-83
2021/11/01 03:33:59;;;;;;;1.00;0.60;;;13.00;99.90;;;;;;5020594;28;20183;-83
2021/11/01 03:36:25;;;;;;;1.80;0.90;;;13.40;99.90;;;;;;5020443;28;20175;-83
2021/11/01 03:38:53;;;;;;;1.63;0.68;;;13.60;99.90;;;;;;5005942;28;20201;-82
2021/11/01 03:41:19;;;;;;;1.90;0.80;;;13.00;99.90;;;;;;5016302;28;20307;-82
2021/11/01 03:43:57;;;;;;;1.00;0.90;;;12.90;99.90;;;;;;5016285;28;20205;-83
2021/11/01 03:46:30;;;;;;;2.17;0.80;;;13.10;99.90;;;;;;5026105;28;20964;-83
2021/11/01 03:48:56;;;;;;;1.90;0.90;;;12.80;99.90;;;;;;5031473;28;20247;-84
2021/11/01 03:54:02;;;;;;;3.15;0.85;;;13.00;99.90;;;;;;5031762;28;20205;-84
2021/11/01 03:56:29;;;;;;;5.23;1.20;;;13.30;99.90;;;;;;5018176;28;20664;-83
2021/11/01 03:58:55;;;;;;;3.03;1.08;;;12.80;99.90;;;;;;5021183;28;20184;-83
2021/11/01 04:01:22;;;;;;;2.55;0.93;;;12.50;99.90;;;;;;5017941;28;20206;-84
2021/11/01 04:03:48;;;;;;;1.70;0.85;;;12.70;99.90;;;;;;5019689;28;20535;-84
2021/11/01 04:06:17;;;;;;;3.60;1.00;;;12.60;99.90;;;;;;5026802;28;20195;-83
2021/11/01 04:08:43;;;;;;;1.65;0.93;;;12.20;99.90;;;;;;5017498;28;20533;-83
2021/11/01 04:11:10;;;;;;;1.13;0.70;;;12.30;99.90;;;;;;5010668;28;20283;-83
2021/11/01 04:13:36;;;;;;;3.33;1.10;;;12.70;99.90;;;;;;5023703;28;20657;-83
2021/11/01 04:16:11;;;;;;;1.37;1.20;;;12.40;99.90;;;;;;5014318;28;20211;-83
2021/11/01 04:18:51;;;;;;;2.08;0.95;;;12.40;99.90;;;;;;5019666;28;20192;-84
2021/11/01 04:21:16;;;;;;;3.35;1.10;;;12.60;99.90;;;;;;5013824;28;20688;-83
2021/11/01 04:23:42;;;;;;;2.13;1.10;;;12.50;99.90;;;;;;5013599;28;20184;-83
2021/11/01 04:26:09;;;;;;;2.63;1.00;;;12.20;99.90;;;;;;5021763;28;20177;-83
2021/11/01 04:28:35;;;;;;;2.55;0.93;;;12.20;99.90;;;;;;5030288;28;20401;-83
2021/11/01 04:31:12;;;;;;;0.80;0.60;;;12.60;99.90;;;;;;5030301;28;20193;-84
2021/11/01 04:33:40;;;;;;;1.25;0.80;;;12.50;99.90;;;;;;5015392;28;20290;-84
2021/11/01 04:36:05;;;;;;;1.92;0.70;;;12.10;99.90;;;;;;5031599;28;20284;-83
2021/11/01 04:38:58;;;;;;;3.93;1.00;;;12.60;99.90;;;;;;5027910;28;20196;-84
2021/11/01 04:41:31;;;;;;;2.20;1.10;;;12.00;99.90;;;;;;5020571;28;20548;-85
2021/11/01 04:54:55;;;;;;;2.80;1.38;;;11.80;99.90;;;;;;5024496;28;20235;-83
2021/11/01 04:57:22;;;;;;;1.23;0.70;;;11.70;99.90;;;;;;5013776;28;20187;-83
2021/11/01 04:59:48;;;;;;;2.63;0.95;;;11.80;99.90;;;;;;5015221;28;20222;-83
2021/11/01 05:02:14;;;;;;;1.70;1.30;;;11.60;99.90;;;;;;5028171;28;20282;-83
2021/11/01 05:04:41;;;;;;;0.83;0.80;;;11.40;99.90;;;;;;5013202;28;20298;-83
2021/11/01 05:07:08;;;;;;;2.25;0.88;;;12.00;99.90;;;;;;5029660;28;20182;-83
2021/11/01 05:09:38;;;;;;;2.80;1.30;;;11.80;99.90;;;;;;5023245;28;20191;-83
2021/11/01 05:20:00;;;;;;;4.38;1.00;;;12.20;99.90;;;;;;5029798;28;20215;-84
2021/11/01 05:22:32;;;;;;;1.92;1.75;;;11.80;99.90;;;;;;5017215;28;20189;-84
2021/11/01 05:25:02;;;;;;;3.72;1.30;;;11.80;99.90;;;;;;5005491;28;20234;-84
2021/11/01 05:30:19;;;;;;;1.15;0.80;;;12.00;99.90;;;;;;5023650;28;20613;-84
2021/11/01 05:32:55;;;;;;;1.85;0.88;;;11.80;99.90;;;;;;5004099;28;20568;-84
2021/11/01 05:35:21;;;;;;;3.95;1.00;;;12.10;99.90;;;;;;5017876;28;20212;-83
2021/11/01 05:37:48;;;;;;;6.15;1.25;;;11.60;99.90;;;;;;5029720;28;20588;-84
2021/11/01 05:40:13;;;;;;;3.15;1.20;;;11.70;99.90;;;;;;5008491;28;20204;-83
2021/11/01 05:42:39;;;;;;;1.80;1.10;;;12.00;99.90;;;;;;5025527;28;20243;-83
2021/11/01 05:45:06;;;;;;;2.90;1.00;;;11.60;99.90;;;;;;5012266;28;20237;-83
2021/11/01 05:47:32;;;;;;;1.83;1.38;;;12.30;99.90;;;;;;5029911;28;20207;-83
2021/11/01 05:49:57;;;;;;;2.23;1.50;;;11.50;99.90;;;;;;5014436;28;20221;-83
2021/11/01 05:52:28;;;;;;;2.50;1.40;;;11.60;99.90;;;;;;5035642;28;20184;-84
2021/11/01 05:54:57;;;;;;;2.05;1.00;;;12.10;99.90;;;;;;5011948;28;20552;-83
2021/11/01 05:57:43;;;;;;;2.20;1.30;;;11.70;99.90;;;;;;5029031;28;20195;-83
2021/11/01 06:00:24;;;;;;;2.55;1.25;;;12.00;99.90;;;;;;5017064;28;20213;-83
2021/11/01 06:03:25;;;;;;;1.65;1.20;;;12.10;99.90;;;;;;5025814;28;20179;-83
2021/11/01 06:13:31;;;;;;;1.48;1.38;;;12.40;99.90;;;;;;5029847;28;20195;-83
2021/11/01 06:15:59;;;;;;;1.30;1.10;;;12.30;99.90;;;;;;5012516;28;20567;-83
2021/11/01 06:18:35;;;;;;;4.45;1.40;;;11.50;99.90;;;;;;5015429;28;20187;-83
2021/11/01 06:21:05;;;;;;;1.85;1.10;;;11.70;99.90;;;;;;5031657;28;20300;-84
2021/11/01 06:23:31;;;;;;;2.03;1.30;;;12.00;99.90;;;;;;5032743;28;20179;-84
2021/11/01 06:25:57;;;;;;;1.95;1.40;;;11.60;99.90;;;;;;5012324;28;20731;-84
2021/11/01 06:28:23;;;;;;;2.00;1.00;;;12.00;99.90;;;;;;5015666;28;20318;-84
2021/11/01 06:30:53;;;;;;;0.90;0.90;;;11.70;99.90;;;;;;5020548;28;20195;-86
2021/11/01 06:33:43;;;;;;;0.90;0.80;;;12.50;99.90;;;;;;5020321;28;20709;-86
2021/11/01 06:42:09;;;;;;;1.38;0.80;;;12.10;99.90;;;;;;5032554;28;20186;-84
2021/11/01 06:44:48;;;;;;;0.60;0.60;;;11.80;99.90;;;;;;5023443;28;20298;-83
2021/11/01 06:49:56;;;;;;;0.80;0.60;;;11.50;99.90;;;;;;5031761;28;20199;-84
2021/11/01 06:52:58;;;;;;;1.92;0.80;;;12.00;99.90;;;;;;5015399;28;20194;-83
2021/11/01 06:58:48;;;;;;;1.50;0.60;;;11.60;99.90;;;;;;5017872;28;20220;-84
2021/11/01 07:15:09;;;;;;;2.80;0.70;;;12.00;99.90;;;;;;5030243;28;20230;-84
2021/11/01 07:17:48;;;;;;;1.05;0.70;;;11.80;99.90;;;;;;5016395;28;20178;-83
2021/11/01 08:23:03;;;;;;;0.90;0.75;;;11.50;99.90;;;;;;5032661;28;20280;-87
2021/11/01 08:28:24;;;;;;;3.35;1.00;;;11.70;99.90;;;;;;5031536;28;20548;-88
2021/11/01 08:39:16;;;;;;;1.25;1.00;;;11.80;99.90;;;;;;5030387;28;20277;-88
2021/11/01 08:47:25;;;;;;;1.70;1.00;;;11.40;99.90;;;;;;5031746;28;20187;-87
2021/11/01 08:50:22;;;;;;;1.67;1.30;;;11.60;99.90;;;;;;5010733;28;20439;-88
2021/11/01 09:21:43;;;;;;;2.13;1.15;;;11.60;99.90;;;;;;5027690;28;20231;-91
2021/11/01 09:26:53;;;;;;;1.75;1.02;;;11.80;99.90;;;;;;5024149;28;20217;-89
2021/11/01 09:43:07;;;;;;;1.25;0.93;;;12.40;99.90;;;;;;5029456;28;20210;-84
2021/11/01 09:45:35;;;;;;;0.98;0.90;;;11.60;99.90;;;;;;5012187;28;20221;-89
2021/11/01 09:48:02;;;;;;;4.07;1.05;;;11.80;99.90;;;;;;5016808;28;20282;-96
2021/11/01 09:50:28;;;;;;;1.98;1.00;;;12.10;99.90;;;;;;5020844;28;20183;-96
2021/11/01 09:52:57;;;;;;;2.75;1.05;;;12.10;99.90;;;;;;5015289;28;20189;-89
2021/11/01 09:55:46;;;;;;;1.00;0.70;;;11.90;99.90;;;;;;5010378;28;20213;-83
2021/11/01 10:00:56;;;;;;;3.10;1.27;;;12.50;99.90;;;;;;5025946;28;20265;-90
2021/11/01 10:03:46;;;;;;;1.77;1.08;;;12.30;99.90;;;;;;5012555;28;20662;-90
2021/11/01 10:06:20;;;;;;;2.05;0.70;;;12.50;99.90;;;;;;5010386;28;20187;-92
2021/11/01 10:08:52;;;;;;;0.98;0.82;;;12.10;99.90;;;;;;5012502;28;20193;-93
2021/11/01 10:11:24;;;;;;;0.90;0.80;;;12.40;99.90;;;;;;5014137;28;20178;-95
2021/11/01 10:13:59;;;;;;;1.80;0.90;;;12.50;99.90;;;;;;5014377;28;20227;-90
2021/11/01 10:19:34;;;;;;;1.10;0.77;;;12.50;99.90;;;;;;5029908;28;20199;-89
2021/11/01 10:22:03;;;;;;;0.95;0.70;;;12.10;99.90;;;;;;5025333;28;20187;-92
2021/11/01 10:24:39;;;;;;;0.98;0.88;;;12.50;99.90;;;;;;5024071;28;20885;-94
2021/11/01 10:27:08;;;;;;;1.50;0.88;;;12.10;99.90;;;;;;5014778;28;20198;-89
2021/11/01 10:30:04;;;;;;;2.47;0.80;;;12.70;99.90;;;;;;5013475;28;20224;-90
2021/11/01 10:32:43;;;;;;;1.00;0.80;;;12.60;99.90;;;;;;5016672;28;20214;-85
2021/11/01 10:35:29;;;;;;;1.10;0.70;;;12.60;99.90;;;;;;5022580;28;20201;-88
2021/11/01 10:38:08;;;;;;;1.27;0.73;;;12.50;99.90;;;;;;5014358;28;20184;-92
2021/11/01 10:40:37;;;;;;;2.00;0.80;;;12.60;99.90;;;;;;5027953;28;20254;-90
2021/11/01 10:46:27;;;;;;;0.90;0.82;;;12.20;99.90;;;;;;4999240;28;20798;-89
2021/11/01 11:13:51;;;;;;;1.55;0.93;;;12.90;99.90;;;;;;5029502;28;20258;-89
2021/11/01 11:19:17;;;;;;;1.55;1.05;;;12.50;99.90;;;;;;5016612;28;20664;-88
2021/11/01 11:24:38;;;;;;;1.40;1.30;;;12.90;99.90;;;;;;5021931;28;20290;-85
2021/11/01 11:27:21;;;;;;;0.77;0.73;;;12.50;99.90;;;;;;5015163;28;20195;-85
2021/11/01 11:32:50;;;;;;;1.10;1.00;;;12.90;99.90;;;;;;5030141;28;20276;-86
2021/11/01 11:40:48;;;;;;;1.50;1.23;;;13.20;99.90;;;;;;5027019;28;20209;-85
2021/11/01 11:49:18;;;;;;;1.00;0.90;;;13.10;99.90;;;;;;5032107;28;20595;-86
2021/11/01 11:51:59;;;;;;;1.58;1.27;;;13.10;99.90;;;;;;5008931;28;20194;-86
2021/11/01 11:54:38;;;;;;;2.70;1.15;;;12.70;99.90;;;;;;5013299;28;20204;-87
2021/11/01 11:57:14;;;;;;;1.10;0.98;;;13.20;99.90;;;;;;5016238;28;20195;-87
2021/11/01 11:59:40;;;;;;;1.60;1.10;;;12.90;99.90;;;;;;5013995;28;20193;-87
2021/11/01 12:02:07;;;;;;;1.00;0.90;;;13.10;99.90;;;;;;5012582;28;20186;-87
2021/11/01 12:04:37;;;;;;;0.70;0.70;;;13.30;99.90;;;;;;5012858;28;20207;-87
2021/11/01 12:07:04;;;;;;;1.33;0.90;;;13.00;99.90;;;;;;5005509;28;20236;-87
2021/11/01 12:09:39;;;;;;;1.20;1.00;;;13.00;99.90;;;;;;5014615;28;20191;-88
2021/11/01 12:17:32;;;;;;;1.45;1.35;;;12.80;99.90;;;;;;5009513;28;20435;-87
2021/11/01 12:20:08;;;;;;;3.57;1.63;;;13.10;99.90;;;;;;5017785;28;20748;-87
2021/11/01 12:22:40;;;;;;;1.65;1.55;;;12.70;99.90;;;;;;5019037;28;20252;-88
2021/11/01 12:25:08;;;;;;;2.00;1.50;;;13.30;99.90;;;;;;5021731;28;20718;-88
2021/11/01 12:27:36;;;;;;;1.25;1.15;;;13.10;99.90;;;;;;5008847;28;20191;-88
2021/11/01 12:30:06;;;;;;;1.30;1.20;;;13.30;99.90;;;;;;5025535;28;20214;-86
2021/11/01 12:32:35;;;;;;;1.40;1.30;;;13.50;99.90;;;;;;5008896;28;20685;-87
2021/11/01 12:35:04;;;;;;;1.75;1.38;;;13.40;99.90;;;;;;5015904;28;20221;-86
2021/11/01 12:37:37;;;;;;;3.08;1.23;;;13.80;99.90;;;;;;5032418;28;20190;-88
2021/11/01 12:40:11;;;;;;;1.85;1.35;;;12.90;99.90;;;;;;5014738;28;20209;-86
2021/11/01 12:42:47;;;;;;;2.13;1.90;;;13.30;99.90;;;;;;5014247;28;20184;-86
2021/11/01 12:58:30;;;;;;;2.03;1.38;;;13.10;99.90;;;;;;5021681;28;20252;-86
2021/11/01 13:01:04;;;;;;;1.57;1.27;;;12.90;99.90;;;;;;5013845;28;20213;-87
2021/11/01 13:03:30;;;;;;;1.40;1.30;;;12.50;99.90;;;;;;5020290;28;20837;-87
2021/11/01 13:06:04;;;;;;;4.10;1.88;;;12.70;99.90;;;;;;5015260;28;20208;-87
2021/11/01 13:08:36;;;;;;;3.42;1.45;;;13.20;99.90;;;;;;5016466;28;20189;-87
2021/11/01 13:11:20;;;;;;;1.50;1.35;;;13.00;99.90;;;;;;5003540;28;20200;-87
2021/11/01 13:14:25;;;;;;;2.85;1.83;;;12.50;99.90;;;;;;5019504;28;20212;-86
2021/11/01 13:19:33;;;;;;;1.30;1.20;;;12.50;99.90;;;;;;5029135;28;20627;-87
2021/11/01 13:22:05;;;;;;;2.35;1.58;;;12.60;99.90;;;;;;5013712;28;20217;-87
2021/11/01 13:24:39;;;;;;;2.33;1.73;;;13.00;99.90;;;;;;5012754;28;20208;-87
2021/11/01 13:35:47;;;;;;;2.30;1.70;;;12.80;99.90;;;;;;5030310;28;20208;-87
2021/11/01 13:38:25;;;;;;;2.10;1.90;;;13.50;99.90;;;;;;5019111;28;20222;-87
2021/11/01 13:40:51;;;;;;;2.00;1.80;;;13.00;99.90;;;;;;5008806;28;20213;-88
2021/11/01 13:43:25;;;;;;;3.43;2.13;;;12.90;99.90;;;;;;5010967;28;20215;-87
2021/11/01 13:45:52;;;;;;;3.20;2.33;;;12.90;99.90;;;;;;5015745;28;20188;-87
2021/11/01 13:48:26;;;;;;;4.75;1.92;;;12.80;99.90;;;;;;5019324;28;20541;-87
2021/11/01 13:51:05;;;;;;;1.95;1.67;;;13.60;99.90;;;;;;5014434;28;20190;-87
2021/11/01 13:53:37;;;;;;;1.80;1.70;;;12.90;99.90;;;;;;5014043;28;20232;-88
2021/11/01 13:56:24;;;;;;;3.92;2.17;;;12.80;99.90;;;;;;5015847;28;20214;-88
2021/11/01 14:01:56;;;;;;;3.10;1.77;;;12.90;99.90;;;;;;4988681;28;20295;-88
2021/11/01 14:12:42;;;;;;;2.63;1.75;;;13.20;99.90;;;;;;5030216;28;20218;-88
2021/11/01 14:18:02;;;;;;;2.20;2.00;;;13.10;99.90;;;;;;5025280;28;21129;-88
2021/11/01 14:28:53;;;;;;;1.50;1.40;;;13.30;99.90;;;;;;5029647;28;20465;-88
2021/11/01 15:13:52;;;;;;;1.77;1.60;;;13.20;99.90;;;;;;5033651;28;20217;-88
2021/11/01 15:19:17;;;;;;;1.40;1.30;;;12.80;99.90;;;;;;5029649;28;20752;-88
2021/11/01 15:27:11;;;;;;;1.80;1.60;;;13.30;99.90;;;;;;5052764;28;20253;-56
2021/11/01 16:18:12;;;;;;;6.15;2.50;;;12.50;99.90;;;;;;5026363;28;20185;-55
2021/11/01 16:20:38;;;;;;;4.97;3.63;;;12.70;99.90;;;;;;5028506;28;20215;-55
2021/11/01 16:25:44;;;;;;;2.72;2.53;;;12.60;99.90;;;;;;5024643;28;20447;-55
2021/11/01 16:28:11;;;;;;;2.80;2.57;;;12.80;99.90;;;;;;5019129;28;20196;-55
2021/11/01 16:30:41;;;;;;;3.30;2.85;;;12.50;99.90;;;;;;5019395;28;20483;-54
2021/11/01 16:33:08;;;;;;;5.63;3.55;;;12.60;99.90;;;;;;5018638;28;20591;-55
2021/11/01 16:35:50;;;;;;;4.25;3.10;;;12.70;99.90;;;;;;5025079;28;20203;-54
2021/11/01 16:38:24;;;;;;;3.30;2.92;;;12.40;99.90;;;;;;5021288;28;20190;-54
2021/11/01 16:40:51;;;;;;;3.58;3.28;;;12.50;99.90;;;;;;5022532;28;20239;-55
2021/11/01 16:43:19;;;;;;;4.45;2.92;;;12.40;99.90;;;;;;5025740;28;20174;-54
2021/11/01 16:45:48;;;;;;;3.40;3.00;;;12.50;99.90;;;;;;5028234;28;20497;-55
2021/11/01 16:48:14;;;;;;;4.35;3.28;;;12.40;99.90;;;;;;5029143;28;20622;-54
2021/11/01 16:50:40;;;;;;;2.72;2.53;;;12.60;99.90;;;;;;5027707;28;20212;-54
2021/11/01 16:53:07;;;;;;;4.70;2.83;;;12.60;99.90;;;;;;5029484;28;20291;-54
2021/11/01 16:55:43;;;;;;;5.82;4.53;;;12.50;99.90;;;;;;5026800;28;20188;-55
2021/11/01 16:58:14;;;;;;;3.55;2.63;;;12.80;99.90;;;;;;5023088;28;22180;-54
2021/11/01 17:00:53;;;;;;;2.33;2.13;;;12.30;99.90;;;;;;5027940;28;20206;-55
2021/11/01 17:21:46;;;;;;;3.97;3.30;;;11.90;99.90;;;;;;5026640;28;20568;-55
2021/11/01 17:36:24;;;;;;;4.82;3.72;;;11.80;99.90;;;;;;5027794;28;20185;-55
2021/11/01 18:41:28;;;;;;;4.35;2.95;;;11.30;99.90;;;;;;5032435;28;20220;-54
2021/11/01 18:52:11;;;;;;;4.97;4.57;;;11.20;99.90;;;;;;5024919;28;20182;-54
2021/11/01 18:54:39;;;;;;;6.50;5.90;;;11.50;99.90;;;;;;5028056;28;20278;-54
2021/11/01 18:57:06;;;;;;;4.28;3.90;;;11.20;99.90;;;;;;5020518;28;20182;-53
2021/11/01 18:59:35;;;;;;;4.47;4.07;;;10.90;99.90;;;;;;5023850;28;20689;-55
2021/11/01 19:05:31;;;;;;;5.47;4.75;;;10.90;99.90;;;;;;4976925;28;20303;-54
2021/11/01 19:08:07;;;;;;;6.53;5.93;;;10.90;99.90;;;;;;5024169;28;20185;-54
2021/11/01 20:09:25;;;;;;;4.32;3.92;;;9.90;99.90;;;;;;5030102;28;20200;-54
2021/11/01 20:11:55;;;;;;;5.95;4.18;;;9.60;99.90;;;;;;5029366;28;20190;-54
2021/11/01 21:26:28;;;;;;;2.78;2.58;;;8.70;99.90;;;;;;5027136;28;20212;-54
2021/11/01 21:28:54;;;;;;;1.77;1.67;;;8.90;99.90;;;;;;5031328;28;20622;-54
2021/11/01 21:31:21;;;;;;;2.55;1.92;;;8.80;99.90;;;;;;5025601;28;20192;-54
2021/11/01 21:33:51;;;;;;;2.70;2.40;;;8.60;99.90;;;;;;5029811;28;20183;-54
2021/11/01 21:36:23;;;;;;;2.42;2.22;;;8.80;99.90;;;;;;5029575;28;20269;-54
2021/11/01 21:38:54;;;;;;;2.10;1.92;;;8.70;99.90;;;;;;5021375;28;20194;-54
2021/11/01 21:41:20;;;;;;;2.97;2.50;;;8.80;99.90;;;;;;5028145;28;20208;-54
2021/11/01 21:43:46;;;;;;;2.80;2.42;;;8.80;99.90;;;;;;5029364;28;20185;-54
2021/11/01 21:46:12;;;;;;;3.10;2.38;;;8.90;99.90;;;;;;5013155;28;20191;-54
2021/11/01 21:48:38;;;;;;;3.00;2.70;;;8.60;99.90;;;;;;5028376;28;20557;-55
2021/11/01 21:51:03;;;;;;;4.37;2.20;;;8.20;99.90;;;;;;5027767;28;20250;-54
2021/11/01 21:53:31;;;;;;;2.50;2.30;;;8.80;99.90;;;;;;5029623;28;20190;-54
2021/11/01 21:55:57;;;;;;;2.20;2.00;;;8.70;99.90;;;;;;5024075;28;20194;-54
2021/11/01 21:58:52;;;;;;;3.20;2.28;;;8.60;99.90;;;;;;5029080;28;20569;-54
2021/11/01 22:01:39;;;;;;;2.60;2.40;;;8.70;99.90;;;;;;5022020;28;20208;-54
2021/11/01 22:17:54;;;;;;;2.72;2.40;;;8.50;99.90;;;;;;5028589;28;20193;-54
2021/11/01 22:20:23;;;;;;;3.35;2.38;;;8.30;99.90;;;;;;5028053;28;20202;-54
2021/11/01 22:22:57;;;;;;;3.30;2.55;;;8.60;99.90;;;;;;5029211;28;20549;-54
2021/11/01 22:25:39;;;;;;;2.88;2.35;;;8.30;99.90;;;;;;5028706;28;20167;-54
2021/11/01 22:41:54;;;;;;;2.80;2.60;;;8.40;99.90;;;;;;5028638;28;20667;-53
2021/11/01 22:57:30;;;;;;;3.53;3.22;;;8.50;99.90;;;;;;5028302;28;20252;-54
2021/11/01 22:59:56;;;;;;;3.37;3.17;;;8.30;99.90;;;;;;5023853;28;20206;-54
2021/11/01 23:02:22;;;;;;;3.37;2.47;;;8.60;99.90;;;;;;5028688;28;20206;-54
2021/11/01 23:04:55;;;;;;;3.33;3.03;;;8.50;99.90;;;;;;5032803;28;20476;-54
2021/11/01 23:32:05;;;;;;;3.00;2.30;;;8.70;99.90;;;;;;5031569;28;20201;-54
2021/11/01 23:34:30;;;;;;;3.97;2.40;;;8.60;99.90;;;;;;5032437;28;20186;-54
2021/11/01 23:36:56;;;;;;;2.90;2.60;;;8.80;99.90;;;;;;5031705;28;20193;-54
2021/11/01 23:39:23;;;;;;;3.17;2.33;;;8.70;99.90;;;;;;5029433;28;20238;-54
2021/11/01 23:41:49;;;;;;;3.28;2.42;;;8.60;99.90;;;;;;5028834;28;20272;-55
2021/11/01 23:44:18;;;;;;;3.90;2.87;;;8.80;99.90;;;;;;5032611;28;20186;-54
2021/11/01 23:46:44;;;;;;;4.45;2.47;;;8.80;99.90;;;;;;5031107;28;20500;-54
2021/11/01 23:49:10;;;;;;;2.27;2.03;;;8.80;99.90;;;;;;5031442;28;20297;-54
2021/11/01 23:51:37;;;;;;;2.78;2.42;;;9.00;99.90;;;;;;5028322;28;20266;-54
2021/11/01 23:56:49;;;;;;;5.13;2.63;;;9.00;99.90;;;;;;5032144;28;20182;-54
2021/11/01 23:59:15;;;;;;;2.70;2.50;;;8.90;99.90;;;;;;5029830;28;20202;-54
